Time;durP1;ratioP1;P1;durP2;ratioP2;P2;SDS_P1;SDS_P2;PMS_P1;PMS_P2;Temp;Humidity;BMP_temperature;BMP_pressure;BME280_temperature;BME280_humidity;BME280_pressure;Samples;Min_cycle;Max_cycle;Signal;HPM_P1;HPM_P2
2021/11/14 00:01:38;;;;;;;8.68;5.88;;;9.80;99.90;;;;;;5065514;28;20241;-79
2021/11/14 00:04:07;;;;;;;13.45;8.25;;;9.80;99.90;;;;;;5078639;28;20089;-80
2021/11/14 00:06:33;;;;;;;10.23;5.75;;;9.80;99.90;;;;;;5067049;28;20366;-79
2021/11/14 00:08:58;;;;;;;16.15;7.82;;;9.70;99.90;;;;;;5068283;28;20047;-80
2021/11/14 00:11:24;;;;;;;12.73;8.68;;;9.70;99.90;;;;;;5068610;28;20048;-81
2021/11/14 00:13:51;;;;;;;;;;;9.80;99.90;;;;;;5069688;28;20043;-80
2021/11/14 00:16:20;;;;;;;7.10;5.30;;;9.80;99.90;;;;;;5059337;28;19977;-79
2021/11/14 00:18:46;;;;;;;12.45;7.68;;;9.70;99.90;;;;;;5101401;28;20044;-80
2021/11/14 00:21:14;;;;;;;9.02;5.97;;;9.70;99.90;;;;;;5069679;28;20048;-81
2021/11/14 00:23:40;;;;;;;8.15;4.88;;;9.70;99.90;;;;;;5074955;28;20044;-79
2021/11/14 00:26:06;;;;;;;7.93;5.60;;;9.70;99.90;;;;;;5072571;28;20114;-81
2021/11/14 00:28:32;;;;;;;10.23;5.88;;;9.70;99.90;;;;;;5071650;28;20051;-81
2021/11/14 00:30:58;;;;;;;;;;;9.60;99.90;;;;;;5073753;28;20170;-82
2021/11/14 00:33:23;;;;;;;12.43;8.20;;;9.60;99.90;;;;;;5075586;28;19931;-80
2021/11/14 00:35:52;;;;;;;14.52;6.63;;;9.60;99.90;;;;;;5054376;28;20040;-81
2021/11/14 00:38:24;;;;;;;14.45;8.23;;;9.60;99.90;;;;;;5061785;28;20040;-79
2021/11/14 00:40:51;;;;;;;11.30;5.53;;;9.70;99.90;;;;;;5071728;28;20040;-83
2021/11/14 00:43:17;;;;;;;10.35;7.20;;;9.70;99.90;;;;;;5057040;28;20045;-81
2021/11/14 00:45:46;;;;;;;12.88;5.15;;;9.70;99.90;;;;;;5054176;28;20075;-81
2021/11/14 00:48:14;;;;;;;17.35;9.38;;;9.70;99.90;;;;;;5068249;28;20147;-80
2021/11/14 00:50:43;;;;;;;13.05;6.18;;;9.70;99.90;;;;;;5047474;28;20062;-81
2021/11/14 00:53:13;;;;;;;9.38;6.55;;;9.60;99.90;;;;;;5072005;28;20040;-83
2021/11/14 00:55:39;;;;;;;16.05;7.63;;;9.60;99.90;;;;;;5059557;28;20032;-81
2021/11/14 00:58:05;;;;;;;;;;;9.70;99.90;;;;;;5057715;28;20456;-81
2021/11/14 01:00:32;;;;;;;12.70;7.40;;;9.70;99.90;;;;;;5057688;28;19935;-82
2021/11/14 01:02:58;;;;;;;11.05;7.78;;;9.70;99.90;;;;;;5073235;28;20048;-79
2021/11/14 01:05:26;;;;;;;6.72;5.43;;;9.70;99.90;;;;;;5058351;28;20032;-81
2021/11/14 01:07:51;;;;;;;14.60;6.63;;;9.60;99.90;;;;;;5071531;28;20086;-83
2021/11/14 01:10:22;;;;;;;17.52;6.32;;;9.70;99.90;;;;;;5042321;28;20189;-82
2021/11/14 01:12:48;;;;;;;10.27;6.50;;;9.70;99.90;;;;;;5074442;28;20055;-83
2021/11/14 01:15:17;;;;;;;17.50;8.95;;;9.70;99.90;;;;;;5063295;28;20032;-80
2021/11/14 01:17:43;;;;;;;11.93;5.32;;;9.60;99.90;;;;;;5060797;28;20571;-80
2021/11/14 01:20:11;;;;;;;;;;;9.60;99.90;;;;;;5060829;28;20044;-82
2021/11/14 01:22:37;;;;;;;15.25;7.63;;;9.60;99.90;;;;;;5072957;28;19947;-79
2021/11/14 01:25:04;;;;;;;;;;;9.60;99.90;;;;;;5061057;28;20040;-80
2021/11/14 01:27:29;;;;;;;19.67;7.20;;;9.60;99.90;;;;;;5057413;28;20346;-79
2021/11/14 01:29:55;;;;;;;13.75;7.15;;;9.60;99.90;;;;;;5078107;28;20048;-81
2021/11/14 01:32:21;;;;;;;13.82;5.72;;;9.60;99.90;;;;;;5060410;28;20077;-80
2021/11/14 01:34:47;;;;;;;14.27;7.18;;;9.60;99.90;;;;;;5061634;28;20036;-81
2021/11/14 01:37:12;;;;;;;10.93;6.90;;;9.50;99.90;;;;;;5057676;28;20071;-81
2021/11/14 01:39:38;;;;;;;16.95;7.03;;;9.60;99.90;;;;;;5061413;28;20078;-80
2021/11/14 01:42:04;;;;;;;13.25;6.10;;;9.50;99.90;;;;;;5058185;28;20421;-82
2021/11/14 01:44:30;;;;;;;15.35;9.35;;;9.60;99.90;;;;;;5059519;28;20135;-79
2021/11/14 01:46:56;;;;;;;13.30;6.72;;;9.50;99.90;;;;;;5057969;28;20116;-80
2021/11/14 01:49:22;;;;;;;15.45;6.25;;;9.60;99.90;;;;;;5058906;28;20486;-79
2021/11/14 01:51:48;;;;;;;7.03;5.53;;;9.50;99.90;;;;;;5064670;28;20097;-80
2021/11/14 01:54:19;;;;;;;12.98;8.48;;;9.50;99.90;;;;;;5046121;28;20040;-81
2021/11/14 01:56:46;;;;;;;9.75;6.72;;;9.50;99.90;;;;;;5078468;28;20647;-79
2021/11/14 01:59:13;;;;;;;12.85;5.85;;;9.50;99.90;;;;;;5062569;28;21875;-80
2021/11/14 02:01:39;;;;;;;;;;;9.50;99.90;;;;;;5061072;28;20403;-80
2021/11/14 02:04:06;;;;;;;13.38;6.43;;;9.50;99.90;;;;;;5081522;28;20012;-80
2021/11/14 02:06:35;;;;;;;13.13;6.65;;;9.50;99.90;;;;;;5046074;28;20089;-81
2021/11/14 02:09:02;;;;;;;15.23;7.95;;;9.40;99.90;;;;;;5079401;28;20050;-80
2021/11/14 02:11:28;;;;;;;10.55;7.13;;;9.40;99.90;;;;;;5085430;28;20040;-80
2021/11/14 02:13:54;;;;;;;9.40;5.47;;;9.40;99.90;;;;;;5083510;28;20036;-81
2021/11/14 02:16:24;;;;;;;12.27;6.57;;;9.30;99.90;;;;;;5059158;28;20032;-83
2021/11/14 02:18:51;;;;;;;12.30;6.30;;;9.30;99.90;;;;;;5077476;28;20129;-80
2021/11/14 02:21:18;;;;;;;6.32;4.38;;;9.30;99.90;;;;;;5061465;28;20040;-79
2021/11/14 02:23:44;;;;;;;8.45;4.03;;;9.30;99.90;;;;;;5079350;28;20039;-79
2021/11/14 02:26:10;;;;;;;;;;;9.30;99.90;;;;;;5063518;28;20489;-80
2021/11/14 02:28:36;;;;;;;8.10;4.65;;;9.30;99.90;;;;;;5079603;28;19964;-79
2021/11/14 02:31:04;;;;;;;9.10;4.63;;;9.20;99.90;;;;;;5079830;28;20512;-79
2021/11/14 02:33:31;;;;;;;10.25;6.38;;;9.20;99.90;;;;;;5081159;28;20037;-80
2021/11/14 02:36:05;;;;;;;8.80;4.70;;;9.20;99.90;;;;;;5060177;28;20242;-79
2021/11/14 02:38:31;;;;;;;10.90;4.68;;;9.20;99.90;;;;;;5081165;28;20048;-80
2021/11/14 02:40:58;;;;;;;9.75;6.03;;;9.20;99.90;;;;;;5065243;28;20056;-80
2021/11/14 02:43:24;;;;;;;11.35;6.25;;;9.20;99.90;;;;;;5064649;28;20059;-81
2021/11/14 02:45:50;;;;;;;12.55;3.97;;;9.20;99.90;;;;;;5067902;28;20036;-80
2021/11/14 02:48:19;;;;;;;9.50;5.95;;;9.20;99.90;;;;;;5081940;28;20517;-81
2021/11/14 02:50:47;;;;;;;9.38;5.50;;;9.20;99.90;;;;;;5078095;28;20055;-80
2021/11/14 02:53:13;;;;;;;16.00;6.57;;;9.30;99.90;;;;;;5060611;28;20051;-81
2021/11/14 02:55:40;;;;;;;9.13;5.55;;;9.10;99.90;;;;;;5081145;28;20048;-82
2021/11/14 02:58:06;;;;;;;15.00;6.10;;;9.20;99.90;;;;;;5078326;28;20127;-80
2021/11/14 03:00:42;;;;;;;10.80;5.35;;;9.20;99.90;;;;;;5061509;28;20071;-82
2021/11/14 03:03:08;;;;;;;5.22;3.67;;;9.20;99.90;;;;;;5079864;28;20095;-82
2021/11/14 03:05:34;;;;;;;14.27;6.95;;;9.10;99.90;;;;;;5081998;28;20044;-80
2021/11/14 03:08:00;;;;;;;13.50;7.45;;;9.20;99.90;;;;;;5079290;28;20043;-80
2021/11/14 03:10:28;;;;;;;19.90;5.93;;;9.10;99.90;;;;;;5078076;28;20045;-78
2021/11/14 03:12:56;;;;;;;11.13;6.82;;;9.10;99.90;;;;;;5060210;28;20048;-81
2021/11/14 03:15:22;;;;;;;9.77;4.85;;;9.10;99.90;;;;;;5076270;28;20046;-79
2021/11/14 03:17:48;;;;;;;10.93;6.25;;;9.10;99.90;;;;;;5078745;28;20062;-80
2021/11/14 03:20:14;;;;;;;10.15;6.28;;;9.00;99.90;;;;;;5049591;28;20033;-81
2021/11/14 03:22:40;;;;;;;12.60;6.40;;;9.00;99.90;;;;;;5046540;28;20684;-82
2021/11/14 03:25:06;;;;;;;8.63;5.88;;;9.00;99.90;;;;;;5061577;28;20037;-80
2021/11/14 03:27:32;;;;;;;12.35;6.43;;;9.00;99.90;;;;;;5060139;28;20071;-80
2021/11/14 03:29:57;;;;;;;19.13;8.35;;;9.00;99.90;;;;;;5042235;28;20076;-81
2021/11/14 03:32:23;;;;;;;19.35;8.02;;;9.00;99.90;;;;;;5059176;28;20068;-80
2021/11/14 03:34:49;;;;;;;22.70;7.30;;;9.00;99.90;;;;;;5078157;28;20087;-81
2021/11/14 03:37:18;;;;;;;17.23;8.02;;;9.00;99.90;;;;;;5060780;28;20086;-81
2021/11/14 03:39:44;;;;;;;16.67;7.25;;;9.00;99.90;;;;;;5077812;28;20032;-79
2021/11/14 03:42:10;;;;;;;10.43;5.43;;;8.90;99.90;;;;;;5077505;28;20043;-82
2021/11/14 03:44:36;;;;;;;9.63;6.35;;;8.90;99.90;;;;;;5049002;28;20420;-81
2021/11/14 03:47:03;;;;;;;;;;;8.90;99.90;;;;;;5089325;28;20404;-81
2021/11/14 03:49:28;;;;;;;10.68;5.65;;;8.90;99.90;;;;;;5044138;28;19935;-82
2021/11/14 03:51:55;;;;;;;11.57;6.25;;;8.90;99.90;;;;;;5076753;28;20203;-84
2021/11/14 03:54:22;;;;;;;14.20;6.38;;;8.90;99.90;;;;;;5059212;28;20128;-84
2021/11/14 03:56:49;;;;;;;9.98;5.22;;;8.90;99.90;;;;;;5058565;28;20048;-83
2021/11/14 03:59:14;;;;;;;;;;;8.90;99.90;;;;;;5079841;28;20051;-84
2021/11/14 04:01:46;;;;;;;17.73;5.82;;;8.90;99.90;;;;;;5075014;28;20431;-82
2021/11/14 04:04:12;;;;;;;12.70;5.90;;;8.90;99.90;;;;;;5078641;28;20048;-79
2021/11/14 04:06:38;;;;;;;13.77;6.18;;;8.90;99.90;;;;;;5057161;28;20036;-83
2021/11/14 04:09:05;;;;;;;12.02;5.30;;;8.90;99.90;;;;;;5065046;28;20409;-81
2021/11/14 04:11:31;;;;;;;14.20;6.68;;;8.90;99.90;;;;;;5078372;28;20040;-81
2021/11/14 04:13:57;;;;;;;15.30;7.88;;;8.90;99.90;;;;;;5060002;28;20497;-80
2021/11/14 04:16:24;;;;;;;16.02;4.57;;;8.90;99.90;;;;;;5060413;28;20036;-84
2021/11/14 04:18:50;;;;;;;13.45;6.20;;;8.90;99.90;;;;;;5065362;28;20119;-79
2021/11/14 04:21:16;;;;;;;8.13;4.85;;;8.80;99.90;;;;;;5078296;28;20481;-81
2021/11/14 04:23:41;;;;;;;10.75;4.93;;;8.90;99.90;;;;;;5063819;28;20036;-82
2021/11/14 04:26:08;;;;;;;11.30;6.72;;;8.80;99.90;;;;;;5042808;28;20144;-80
2021/11/14 04:28:37;;;;;;;14.57;7.32;;;8.80;99.90;;;;;;5066445;28;20047;-81
2021/11/14 04:31:03;;;;;;;11.95;8.27;;;8.90;99.90;;;;;;5046474;28;20036;-80
2021/11/14 04:33:30;;;;;;;10.77;5.57;;;8.80;99.90;;;;;;5047596;28;20485;-80
2021/11/14 04:35:56;;;;;;;13.18;5.68;;;8.90;99.90;;;;;;5062129;28;20169;-81
2021/11/14 04:38:22;;;;;;;;;;;8.80;99.90;;;;;;5062236;28;20096;-80
2021/11/14 04:40:50;;;;;;;12.88;6.47;;;8.80;99.90;;;;;;5063882;28;19920;-80
2021/11/14 04:43:17;;;;;;;9.60;6.30;;;8.90;99.90;;;;;;5079714;28;20052;-82
2021/11/14 04:45:44;;;;;;;9.48;5.25;;;8.80;99.90;;;;;;5057089;28;20075;-82
2021/11/14 04:48:11;;;;;;;11.43;5.70;;;8.80;99.90;;;;;;5077279;28;20056;-80
2021/11/14 04:50:37;;;;;;;11.40;6.20;;;8.80;99.90;;;;;;5062175;28;20421;-82
2021/11/14 04:53:05;;;;;;;7.30;5.70;;;8.80;99.90;;;;;;5081514;28;20044;-80
2021/11/14 04:55:31;;;;;;;12.10;6.00;;;8.80;99.90;;;;;;5057594;28;20093;-82
2021/11/14 04:57:57;;;;;;;11.38;6.05;;;8.80;99.90;;;;;;5074766;28;20154;-79
2021/11/14 05:00:26;;;;;;;11.00;5.45;;;8.80;99.90;;;;;;5046080;28;20481;-79
2021/11/14 05:02:52;;;;;;;8.20;5.45;;;8.80;99.90;;;;;;5077444;28;20040;-80
2021/11/14 05:05:18;;;;;;;11.90;6.47;;;8.80;99.90;;;;;;5078923;28;20074;-80
2021/11/14 05:07:44;;;;;;;21.65;6.00;;;8.80;99.90;;;;;;5077743;28;20390;-80
2021/11/14 05:10:10;;;;;;;17.20;7.07;;;8.80;99.90;;;;;;5077563;28;20036;-82
2021/11/14 05:12:36;;;;;;;7.43;6.60;;;8.80;99.90;;;;;;5080705;28;20040;-80
2021/11/14 05:15:03;;;;;;;7.13;4.95;;;8.80;99.90;;;;;;5079390;28;20394;-80
2021/11/14 05:17:29;;;;;;;11.93;7.22;;;8.80;99.90;;;;;;5080666;28;20478;-80
2021/11/14 05:19:55;;;;;;;7.85;4.75;;;8.80;99.90;;;;;;5090625;28;20051;-78
2021/11/14 05:22:21;;;;;;;15.18;5.85;;;8.70;99.90;;;;;;5077310;28;20448;-79
2021/11/14 05:24:46;;;;;;;7.15;6.13;;;8.70;99.90;;;;;;5078963;28;20790;-80
2021/11/14 05:27:12;;;;;;;13.82;7.30;;;8.70;99.90;;;;;;5075401;28;20032;-79
2021/11/14 05:29:38;;;;;;;10.10;5.60;;;8.70;99.90;;;;;;5060110;28;20036;-80
2021/11/14 05:32:04;;;;;;;8.00;5.43;;;8.80;99.90;;;;;;5061293;28;20054;-78
2021/11/14 05:34:30;;;;;;;14.98;6.75;;;8.80;99.90;;;;;;5076136;28;20028;-79
2021/11/14 05:36:56;;;;;;;9.45;4.93;;;8.80;99.90;;;;;;5058373;28;20033;-81
2021/11/14 05:39:21;;;;;;;6.00;4.55;;;8.80;99.90;;;;;;5061218;28;20039;-81
2021/11/14 05:41:47;;;;;;;7.93;4.63;;;8.80;99.90;;;;;;5046783;28;20047;-81
2021/11/14 05:44:14;;;;;;;8.75;5.65;;;8.80;99.90;;;;;;5065027;28;20069;-81
2021/11/14 05:46:40;;;;;;;11.00;5.05;;;8.70;99.90;;;;;;5079863;28;20055;-80
2021/11/14 05:49:09;;;;;;;;;;;8.70;99.90;;;;;;5081816;28;20051;-80
2021/11/14 05:51:36;;;;;;;10.55;6.38;;;8.70;99.90;;;;;;5076750;28;19920;-78
2021/11/14 05:54:02;;;;;;;8.98;4.90;;;8.70;99.90;;;;;;5078437;28;20036;-80
2021/11/14 05:56:28;;;;;;;10.48;5.45;;;8.70;99.90;;;;;;5079510;28;20093;-81
2021/11/14 06:01:31;;;;;;;12.75;6.38;;;8.70;99.90;;;;;;5066185;28;20072;-81
2021/11/14 06:04:05;;;;;;;14.15;7.22;;;8.70;99.90;;;;;;5077139;28;20075;-80
2021/11/14 06:06:31;;;;;;;9.52;4.63;;;8.70;99.90;;;;;;5079897;28;20109;-80
2021/11/14 06:08:56;;;;;;;7.82;6.25;;;8.70;99.90;;;;;;5076185;28;20044;-80
2021/11/14 06:11:24;;;;;;;8.77;5.03;;;8.70;99.90;;;;;;5076136;28;20078;-79
2021/11/14 06:13:52;;;;;;;6.25;5.40;;;8.70;99.90;;;;;;5061449;28;20411;-80
2021/11/14 06:16:18;;;;;;;9.95;5.30;;;8.60;99.90;;;;;;5070027;28;20040;-82
2021/11/14 06:18:44;;;;;;;12.43;5.15;;;8.70;99.90;;;;;;5080241;28;20044;-79
2021/11/14 06:21:10;;;;;;;14.13;7.28;;;8.70;99.90;;;;;;5081278;28;20036;-80
2021/11/14 06:23:35;;;;;;;10.25;5.03;;;8.60;99.90;;;;;;5078863;28;20040;-81
2021/11/14 06:26:02;;;;;;;11.40;5.15;;;8.60;99.90;;;;;;5064276;28;20044;-81
2021/11/14 06:28:27;;;;;;;;;;;8.60;99.90;;;;;;5078755;28;20046;-81
2021/11/14 06:30:53;;;;;;;7.82;5.57;;;8.60;99.90;;;;;;5077216;28;19920;-78
2021/11/14 06:33:19;;;;;;;10.32;6.65;;;8.60;99.90;;;;;;5060009;28;20130;-78
2021/11/14 06:35:45;;;;;;;11.80;5.65;;;8.60;99.90;;;;;;5061327;28;20040;-79
2021/11/14 06:38:11;;;;;;;13.00;7.30;;;8.60;99.90;;;;;;5078131;28;20122;-78
2021/11/14 06:40:37;;;;;;;10.93;6.63;;;8.60;99.90;;;;;;5078237;28;20564;-79
2021/11/14 06:43:03;;;;;;;10.32;6.00;;;8.60;99.90;;;;;;5080814;28;20097;-80
2021/11/14 06:45:29;;;;;;;11.52;5.20;;;8.60;99.90;;;;;;5094124;28;20401;-80
2021/11/14 06:47:54;;;;;;;9.10;6.93;;;8.60;99.90;;;;;;5060824;28;20052;-80
2021/11/14 06:50:20;;;;;;;7.30;4.43;;;8.50;99.90;;;;;;5080589;28;20047;-79
2021/11/14 06:52:46;;;;;;;9.27;5.97;;;8.50;99.90;;;;;;5078783;28;20450;-79
2021/11/14 06:55:14;;;;;;;4.95;3.38;;;8.50;99.90;;;;;;5079017;28;20043;-79
2021/11/14 06:57:41;;;;;;;8.90;5.15;;;8.50;99.90;;;;;;5078506;28;20036;-80
2021/11/14 07:00:09;;;;;;;16.90;5.97;;;8.50;99.90;;;;;;5063636;28;20040;-80
2021/11/14 07:02:35;;;;;;;12.68;5.82;;;8.50;99.90;;;;;;5049583;28;20051;-80
2021/11/14 07:05:01;;;;;;;6.20;4.22;;;8.50;99.90;;;;;;5076845;28;20036;-81
2021/11/14 07:07:27;;;;;;;9.80;4.90;;;8.50;99.90;;;;;;5068082;28;20082;-80
2021/11/14 07:09:52;;;;;;;9.07;5.00;;;8.40;99.90;;;;;;5065051;28;20032;-79
2021/11/14 07:12:20;;;;;;;11.82;6.78;;;8.50;99.90;;;;;;5079112;28;20518;-80
2021/11/14 07:14:46;;;;;;;9.30;5.35;;;8.50;99.90;;;;;;5079956;28;20566;-79
2021/11/14 07:17:13;;;;;;;10.43;6.00;;;8.50;99.90;;;;;;5089946;28;20032;-79
2021/11/14 07:19:39;;;;;;;5.63;4.28;;;8.50;99.90;;;;;;5063450;28;20044;-81
2021/11/14 07:22:05;;;;;;;9.35;6.80;;;8.50;99.90;;;;;;5075145;28;20043;-81
2021/11/14 07:24:30;;;;;;;6.35;3.83;;;8.60;99.90;;;;;;5060309;28;20044;-82
2021/11/14 07:26:56;;;;;;;12.82;5.22;;;8.60;99.90;;;;;;5076573;28;20044;-80
2021/11/14 07:29:22;;;;;;;6.15;4.45;;;8.60;99.90;;;;;;5073611;28;20447;-82
2021/11/14 07:31:48;;;;;;;19.17;6.88;;;8.60;99.90;;;;;;5080417;28;20112;-80
2021/11/14 07:34:13;;;;;;;9.65;5.50;;;8.60;99.90;;;;;;5080131;28;20051;-82
2021/11/14 07:36:39;;;;;;;8.52;6.07;;;8.60;99.90;;;;;;5081680;28;20050;-81
2021/11/14 07:39:05;;;;;;;7.18;4.75;;;8.60;99.90;;;;;;5058557;28;20128;-81
2021/11/14 07:41:30;;;;;;;9.45;4.63;;;8.70;99.90;;;;;;5059284;28;20032;-79
2021/11/14 07:43:56;;;;;;;5.70;3.55;;;8.60;99.90;;;;;;5042372;28;20520;-81
2021/11/14 07:46:22;;;;;;;12.57;5.05;;;8.70;99.90;;;;;;5076175;28;20043;-82
2021/11/14 07:48:48;;;;;;;8.77;4.95;;;8.70;99.90;;;;;;5059279;28;20494;-80
2021/11/14 07:51:14;;;;;;;9.40;5.80;;;8.70;99.90;;;;;;5058552;28;20098;-82
2021/11/14 07:53:39;;;;;;;9.88;6.35;;;8.70;99.90;;;;;;5059212;28;20792;-79
2021/11/14 07:56:06;;;;;;;7.97;4.45;;;8.60;99.90;;;;;;5064271;28;20131;-83
2021/11/14 07:58:32;;;;;;;14.48;7.15;;;8.70;99.90;;;;;;5075842;28;20032;-80
2021/11/14 08:00:58;;;;;;;8.93;6.40;;;8.70;99.90;;;;;;5076556;28;20051;-80
2021/11/14 08:03:23;;;;;;;7.78;4.93;;;8.70;99.90;;;;;;5048822;28;20044;-78
2021/11/14 08:05:50;;;;;;;12.10;6.35;;;8.70;99.90;;;;;;5077165;28;20048;-78
2021/11/14 08:08:16;;;;;;;11.73;5.95;;;8.80;99.90;;;;;;5062788;28;20036;-80
2021/11/14 08:10:42;;;;;;;9.50;5.88;;;8.70;99.90;;;;;;5074873;28;20486;-78
2021/11/14 08:13:09;;;;;;;11.43;6.20;;;8.70;99.90;;;;;;5076751;28;20094;-79
2021/11/14 08:15:36;;;;;;;10.23;5.28;;;8.70;99.90;;;;;;5069695;28;20436;-81
2021/11/14 08:18:03;;;;;;;7.45;3.92;;;8.70;99.90;;;;;;5067543;28;20047;-81
2021/11/14 08:20:32;;;;;;;13.73;6.50;;;8.80;99.90;;;;;;5091884;28;20051;-81
2021/11/14 08:23:00;;;;;;;11.57;6.07;;;8.80;99.90;;;;;;5085282;28;20087;-82
2021/11/14 08:25:27;;;;;;;13.18;6.15;;;8.80;99.90;;;;;;5072989;28;20481;-82
2021/11/14 08:27:52;;;;;;;8.13;4.78;;;8.80;99.90;;;;;;5090729;28;20076;-79
2021/11/14 08:30:19;;;;;;;10.20;4.60;;;8.80;99.90;;;;;;5072603;28;20082;-78
2021/11/14 08:32:46;;;;;;;15.27;6.50;;;8.90;99.90;;;;;;5091263;28;20088;-79
2021/11/14 08:35:12;;;;;;;6.97;4.63;;;8.90;99.90;;;;;;5060783;28;20098;-81
2021/11/14 08:37:38;;;;;;;10.10;6.55;;;8.90;99.90;;;;;;5067723;28;20032;-80
2021/11/14 08:40:05;;;;;;;;;;;8.90;99.90;;;;;;5085229;28;20037;-80
2021/11/14 08:42:31;;;;;;;8.70;5.60;;;8.90;99.90;;;;;;5065782;28;19917;-81
2021/11/14 08:44:56;;;;;;;9.52;5.93;;;8.90;99.90;;;;;;5063485;28;20379;-78
2021/11/14 08:47:22;;;;;;;10.18;6.88;;;9.00;99.90;;;;;;5090422;28;20493;-79
2021/11/14 08:49:48;;;;;;;16.58;6.95;;;9.00;99.90;;;;;;5068569;28;20449;-80
2021/11/14 08:52:14;;;;;;;13.57;6.53;;;9.00;99.90;;;;;;5054943;28;20562;-81
2021/11/14 08:54:45;;;;;;;14.38;8.38;;;9.10;99.90;;;;;;5073596;28;20044;-78
2021/11/14 08:57:11;;;;;;;9.15;5.38;;;9.10;99.90;;;;;;5052727;28;20044;-80
2021/11/14 08:59:38;;;;;;;11.63;6.30;;;9.10;99.90;;;;;;5072159;28;20052;-81
2021/11/14 09:02:04;;;;;;;11.38;5.63;;;9.20;99.90;;;;;;5089524;28;20128;-83
2021/11/14 09:04:30;;;;;;;11.32;6.88;;;9.20;99.90;;;;;;5075737;28;20067;-83
2021/11/14 09:06:59;;;;;;;14.70;8.30;;;9.30;99.90;;;;;;5065124;28;20044;-81
2021/11/14 09:09:25;;;;;;;18.77;9.45;;;9.30;99.90;;;;;;5056285;28;20104;-83
2021/11/14 09:11:51;;;;;;;14.80;6.80;;;9.40;99.90;;;;;;5073163;28;20035;-85
2021/11/14 09:14:18;;;;;;;11.15;7.32;;;9.40;99.90;;;;;;5067596;28;20047;-84
2021/11/14 09:16:49;;;;;;;10.27;7.45;;;9.40;99.90;;;;;;5075270;28;20036;-84
2021/11/14 09:19:14;;;;;;;13.60;8.02;;;9.40;99.90;;;;;;5088329;28;20097;-80
2021/11/14 09:21:40;;;;;;;14.90;7.22;;;9.40;99.90;;;;;;5088913;28;20043;-80
2021/11/14 09:24:07;;;;;;;17.70;7.90;;;9.50;99.90;;;;;;5056849;28;20048;-82
2021/11/14 09:26:33;;;;;;;11.77;6.75;;;9.40;99.90;;;;;;5088915;28;20044;-79
2021/11/14 09:28:59;;;;;;;9.18;5.53;;;9.40;99.90;;;;;;5086588;28;20043;-78
2021/11/14 09:31:25;;;;;;;10.15;5.97;;;9.40;99.90;;;;;;5063288;28;20274;-81
2021/11/14 09:33:54;;;;;;;10.93;6.95;;;9.40;99.90;;;;;;5083966;28;20167;-78
2021/11/14 09:36:21;;;;;;;10.25;6.13;;;9.40;99.90;;;;;;5076945;28;20052;-78
2021/11/14 09:38:48;;;;;;;12.88;8.18;;;9.40;99.90;;;;;;5089830;28;20040;-79
2021/11/14 09:41:14;;;;;;;7.35;4.82;;;9.40;99.90;;;;;;5082269;28;20119;-80
2021/11/14 09:43:40;;;;;;;16.48;5.95;;;9.50;99.90;;;;;;5083571;28;21919;-78
2021/11/14 09:46:07;;;;;;;18.35;7.43;;;9.40;99.90;;;;;;5074317;28;20504;-78
2021/11/14 09:48:33;;;;;;;11.32;5.93;;;9.40;99.90;;;;;;5077233;28;20048;-80
2021/11/14 09:51:00;;;;;;;13.57;5.20;;;9.50;99.90;;;;;;5079998;28;20036;-79
2021/11/14 09:53:28;;;;;;;10.75;5.10;;;9.40;99.90;;;;;;5063297;28;20033;-77
2021/11/14 09:55:56;;;;;;;11.63;6.72;;;9.50;99.90;;;;;;5080533;28;20049;-78
2021/11/14 09:58:23;;;;;;;17.15;6.35;;;9.50;99.90;;;;;;5077596;28;20075;-80
2021/11/14 10:00:50;;;;;;;9.35;5.55;;;9.50;99.90;;;;;;5060051;28;20438;-79
2021/11/14 10:03:16;;;;;;;15.43;6.50;;;9.60;99.90;;;;;;5078800;28;20107;-82
2021/11/14 10:05:42;;;;;;;;;;;9.60;99.90;;;;;;5077632;28;20036;-80
2021/11/14 10:08:10;;;;;;;16.58;6.03;;;9.70;99.90;;;;;;5078986;28;20293;-78
2021/11/14 10:10:56;;;;;;;14.63;7.07;;;9.60;99.90;;;;;;5063039;28;20039;-79
2021/11/14 10:13:34;;;;;;;14.27;5.45;;;9.70;99.90;;;;;;5062265;28;20134;-81
2021/11/14 10:16:10;;;;;;;15.90;6.18;;;9.70;99.90;;;;;;5083939;28;20167;-82
2021/11/14 10:18:40;;;;;;;18.40;6.95;;;9.70;99.90;;;;;;5084142;28;20464;-79
2021/11/14 10:21:07;;;;;;;5.68;5.05;;;9.70;99.90;;;;;;5072360;28;20048;-79
2021/11/14 10:23:36;;;;;;;6.90;5.47;;;9.60;99.90;;;;;;5076689;28;20043;-77
2021/11/14 10:26:09;;;;;;;10.02;6.03;;;9.70;99.90;;;;;;5095242;28;20051;-77
2021/11/14 10:28:37;;;;;;;11.90;5.13;;;9.70;99.90;;;;;;5093219;28;20388;-79
2021/11/14 10:31:04;;;;;;;9.40;4.93;;;9.70;99.90;;;;;;5099235;28;20051;-79
2021/11/14 10:33:30;;;;;;;9.18;4.93;;;9.70;99.90;;;;;;5068441;28;20051;-79
2021/11/14 10:35:57;;;;;;;12.10;7.47;;;9.70;99.90;;;;;;5085086;28;20036;-81
2021/11/14 10:38:26;;;;;;;12.13;6.40;;;9.80;99.90;;;;;;5080196;28;20048;-82
2021/11/14 10:41:02;;;;;;;12.00;5.70;;;9.80;99.90;;;;;;5081951;28;20040;-78
2021/11/14 10:43:29;;;;;;;7.60;5.13;;;9.90;99.90;;;;;;5065118;28;20123;-78
2021/11/14 10:45:58;;;;;;;9.13;4.65;;;9.90;99.90;;;;;;5078529;28;20049;-81
2021/11/14 10:48:26;;;;;;;7.18;5.25;;;9.90;99.90;;;;;;5060583;28;20102;-80
2021/11/14 10:50:58;;;;;;;12.80;6.78;;;10.00;99.90;;;;;;5080755;28;20481;-81
2021/11/14 10:53:28;;;;;;;11.27;5.70;;;10.00;99.90;;;;;;5078656;28;20076;-79
2021/11/14 10:55:58;;;;;;;6.43;4.40;;;10.00;99.90;;;;;;5083102;28;20452;-78
2021/11/14 10:58:26;;;;;;;9.98;4.97;;;10.00;99.90;;;;;;5087833;28;20478;-80
2021/11/14 11:01:05;;;;;;;7.93;5.30;;;10.00;99.90;;;;;;5075994;28;20397;-80
2021/11/14 11:03:40;;;;;;;8.90;5.68;;;10.00;99.90;;;;;;5087568;28;20059;-79
2021/11/14 11:06:08;;;;;;;7.85;4.75;;;9.90;99.90;;;;;;5090317;28;20048;-79
2021/11/14 11:08:35;;;;;;;11.27;5.80;;;9.90;99.90;;;;;;5081572;28;20086;-80
2021/11/14 11:11:07;;;;;;;10.65;4.30;;;9.90;99.90;;;;;;5068821;28;20036;-80
2021/11/14 11:13:46;;;;;;;9.10;4.78;;;9.90;99.90;;;;;;5078801;28;20435;-81
2021/11/14 11:16:22;;;;;;;9.82;4.68;;;9.80;99.90;;;;;;5097585;28;20393;-79
2021/11/14 11:18:57;;;;;;;7.72;5.22;;;9.80;99.90;;;;;;5095798;28;20123;-81
2021/11/14 11:21:32;;;;;;;10.57;5.43;;;9.80;99.90;;;;;;5074769;28;20041;-81
2021/11/14 11:24:15;;;;;;;8.68;5.20;;;9.80;99.90;;;;;;5091127;28;20063;-80
2021/11/14 11:26:59;;;;;;;9.07;5.00;;;9.80;99.90;;;;;;5086149;28;20052;-78
2021/11/14 11:29:25;;;;;;;7.60;6.07;;;9.80;99.90;;;;;;5076982;28;20051;-78
2021/11/14 11:31:52;;;;;;;7.45;4.45;;;9.80;99.90;;;;;;5066487;28;20078;-80
2021/11/14 11:34:20;;;;;;;12.50;6.15;;;9.80;99.90;;;;;;5089876;28;20052;-79
2021/11/14 11:36:48;;;;;;;12.20;6.38;;;9.90;99.90;;;;;;5089985;28;20044;-77
2021/11/14 11:39:16;;;;;;;12.45;5.22;;;9.90;99.90;;;;;;5096630;28;20079;-79
2021/11/14 11:41:46;;;;;;;9.02;5.35;;;10.00;99.90;;;;;;5080080;28;20043;-83
2021/11/14 11:44:16;;;;;;;8.70;5.15;;;10.00;99.90;;;;;;5090157;28;20052;-79
2021/11/14 11:46:47;;;;;;;16.98;5.07;;;10.00;99.90;;;;;;5082201;28;20097;-80
2021/11/14 11:49:19;;;;;;;9.85;5.70;;;9.90;99.90;;;;;;5070858;28;20058;-81
2021/11/14 11:51:55;;;;;;;8.98;5.60;;;9.90;99.90;;;;;;5083160;28;20051;-80
2021/11/14 11:54:26;;;;;;;16.70;7.00;;;9.90;99.90;;;;;;5079653;28;20050;-82
2021/11/14 11:56:55;;;;;;;11.95;6.95;;;9.90;99.90;;;;;;5078849;28;20141;-82
2021/11/14 11:59:35;;;;;;;8.68;6.55;;;9.90;99.90;;;;;;5087672;28;20044;-81
2021/11/14 12:02:12;;;;;;;9.18;5.13;;;10.00;99.90;;;;;;5086702;28;20143;-82
2021/11/14 12:04:48;;;;;;;11.10;6.28;;;10.00;99.90;;;;;;5069436;28;20044;-80
2021/11/14 12:07:27;;;;;;;10.40;6.93;;;10.10;99.90;;;;;;5090271;28;20071;-81
2021/11/14 12:09:57;;;;;;;8.48;4.93;;;9.90;99.90;;;;;;5081365;28;20043;-82
2021/11/14 12:12:27;;;;;;;8.30;4.53;;;10.10;99.90;;;;;;5088781;28;20126;-81
2021/11/14 12:15:17;;;;;;;10.35;6.30;;;9.90;99.90;;;;;;5087041;28;20607;-81
2021/11/14 12:18:09;;;;;;;14.23;5.50;;;10.00;99.90;;;;;;5074726;28;20052;-81
2021/11/14 12:20:42;;;;;;;7.78;5.57;;;10.00;99.90;;;;;;5082908;28;20538;-81
2021/11/14 12:23:27;;;;;;;11.35;5.85;;;9.90;99.90;;;;;;5082660;28;20106;-80
2021/11/14 12:25:57;;;;;;;11.60;6.45;;;9.90;99.90;;;;;;5085706;28;20102;-82
2021/11/14 12:28:29;;;;;;;9.93;5.82;;;9.90;99.90;;;;;;5069530;28;20055;-79
2021/11/14 12:31:10;;;;;;;10.85;7.28;;;9.90;99.90;;;;;;5090432;28;20048;-79
2021/11/14 12:33:52;;;;;;;10.25;5.40;;;9.90;99.90;;;;;;5082837;28;20054;-80
2021/11/14 12:36:22;;;;;;;7.90;5.63;;;9.90;99.90;;;;;;5083697;28;20036;-81
2021/11/14 12:38:48;;;;;;;12.40;6.63;;;9.90;99.90;;;;;;5059765;28;20047;-79
2021/11/14 12:41:16;;;;;;;12.32;6.07;;;10.00;99.90;;;;;;5058623;28;20051;-82
2021/11/14 12:43:48;;;;;;;9.00;5.50;;;9.90;99.90;;;;;;5065680;28;20163;-80
2021/11/14 12:46:23;;;;;;;16.50;6.25;;;9.90;99.90;;;;;;5074070;28;20106;-80
2021/11/14 12:48:50;;;;;;;13.85;5.85;;;9.90;99.90;;;;;;5078010;28;20059;-79
2021/11/14 12:51:26;;;;;;;12.55;5.55;;;9.90;99.90;;;;;;5086788;28;20048;-82
2021/11/14 12:53:54;;;;;;;10.40;7.70;;;9.80;99.90;;;;;;5085328;28;20047;-83
2021/11/14 12:56:32;;;;;;;11.75;5.38;;;9.80;99.90;;;;;;5077440;28;20145;-84
2021/11/14 12:59:14;;;;;;;17.73;7.32;;;9.80;99.90;;;;;;5072211;28;20031;-83